Packwood, Washington
Current Conditions -  °F | °C
As of 8:28 PM on Saturday 25 Oct 2014 (Local Time) from KTCM Reporting Station
Overcast Overcast  
Wind Chill: 52°   Ceiling: 2000
Heat Index: 52°   Visibility: 10mi
Dew Point: 52°   Wind: 21mph
Humidity: 100%   Direction: 210°SSW
Pressure: 29.58"   Gusts: 36mph
Location:  46.61°N, 121.67°W
Report Text: KTCM 260328Z AUTO 21018G31KT 10SM BKN020 BKN029 OVC036 11/11 A2958 RMK AO2 PRESRR
Loading
Personal Weather Stations






























Interactive Weather Map
Tropical Storm Tracking
New forecast layout! Learn more

10-Day Weather Forecast

Advertisements
Track Severe Weather on mobile